Time;durP1;ratioP1;P1;durP2;ratioP2;P2;SDS_P1;SDS_P2;PMS_P1;PMS_P2;Temp;Humidity;BMP_temperature;BMP_pressure;BME280_temperature;BME280_humidity;BME280_pressure;Samples;Min_cycle;Max_cycle;Signal;HPM_P1;HPM_P2
2021/08/21 00:00:57;;;;;;;4.70;3.10;;;;;;;19.06;66.28;100322.20;1737707;81;21437;-40
2021/08/21 00:03:23;;;;;;;3.80;3.00;;;;;;;18.98;66.45;100320.04;1759798;81;21484;-40
2021/08/21 00:05:50;;;;;;;5.97;3.02;;;;;;;18.91;66.77;100320.81;1759098;81;20935;-41
2021/08/21 00:08:16;;;;;;;6.08;3.10;;;;;;;18.84;66.84;100321.23;1758401;81;21547;-40
2021/08/21 00:10:44;;;;;;;2.95;2.62;;;;;;;18.76;67.13;100317.71;1756445;81;21624;-40
2021/08/21 00:13:11;;;;;;;3.30;2.90;;;;;;;18.69;67.24;100315.05;1758403;80;22033;-41
2021/08/21 00:15:38;;;;;;;7.92;4.10;;;;;;;18.62;67.45;100314.53;1755351;81;21520;-40
2021/08/21 00:18:06;;;;;;;5.40;2.90;;;;;;;18.55;67.64;100314.02;1748022;81;21619;-40
2021/08/21 00:20:34;;;;;;;6.90;3.25;;;;;;;18.49;67.92;100319.15;1760684;81;21605;-40
2021/08/21 00:23:01;;;;;;;3.15;2.83;;;;;;;18.41;68.36;100313.94;1747549;81;21033;-39
2021/08/21 00:25:27;;;;;;;8.23;3.25;;;;;;;18.33;68.89;100316.51;1738164;81;21161;-39
2021/08/21 00:27:54;;;;;;;4.72;3.00;;;;;;;18.26;69.17;100319.05;1735925;81;20982;-40
2021/08/21 00:30:20;;;;;;;7.45;3.20;;;;;;;18.21;69.46;100323.69;1730912;81;20931;-40
2021/08/21 00:32:46;;;;;;;5.05;3.20;;;;;;;18.16;69.80;100321.30;1758504;81;20982;-40
2021/08/21 00:35:13;;;;;;;5.95;3.45;;;;;;;18.13;69.72;100324.56;1753684;81;21049;-40
2021/08/21 00:37:40;;;;;;;4.40;3.00;;;;;;;18.08;69.86;100321.73;1746043;81;21126;-40
2021/08/21 00:40:07;;;;;;;5.37;3.10;;;;;;;18.08;69.74;100321.73;1754005;81;20974;-39
2021/08/21 00:42:35;;;;;;;3.70;2.90;;;;;;;18.05;69.92;100317.93;1759169;81;20998;-40
2021/08/21 00:45:07;;;;;;;7.40;2.98;;;;;;;18.03;69.92;100322.41;1717223;82;21047;-40
2021/08/21 00:47:33;;;;;;;3.80;3.10;;;;;;;17.99;70.10;100314.78;1690103;82;20987;-40
2021/08/21 00:50:00;;;;;;;7.70;3.12;;;;;;;17.94;70.29;100318.93;1741201;82;21143;-40
2021/08/21 00:52:29;;;;;;;6.42;3.30;;;;;;;17.89;70.43;100311.78;1728650;81;21149;-40
2021/08/21 00:54:57;;;;;;;7.12;3.62;;;;;;;17.85;70.62;100311.08;1739440;82;20963;-40
2021/08/21 00:57:24;;;;;;;4.72;3.22;;;;;;;17.81;71.07;100316.96;1729782;82;21540;-40
2021/08/21 00:59:51;;;;;;;6.22;3.70;;;;;;;17.77;71.10;100308.85;1709901;83;20935;-40
2021/08/21 01:02:18;;;;;;;7.20;3.92;;;;;;;17.73;71.51;100317.79;1727373;81;21091;-41
2021/08/21 01:04:50;;;;;;;6.85;3.58;;;;;;;17.70;71.86;100317.95;1736666;81;20947;-39
2021/08/21 01:07:26;;;;;;;9.03;3.87;;;;;;;17.65;72.15;100320.79;1711988;82;20952;-40
2021/08/21 01:10:06;;;;;;;5.87;3.27;;;;;;;17.60;72.79;100324.58;1707406;82;21026;-40
2021/08/21 01:12:36;;;;;;;10.40;3.80;;;;;;;17.56;73.26;100320.43;1686025;83;20995;-39
2021/08/21 01:15:04;;;;;;;5.17;3.45;;;;;;;17.48;73.24;100316.41;1713765;82;21153;-40
2021/08/21 01:17:36;;;;;;;3.98;3.50;;;;;;;17.46;73.05;100318.25;1719183;81;20979;-40
2021/08/21 01:20:07;;;;;;;6.08;3.65;;;;;;;17.42;73.14;100319.33;1739563;82;20943;-40
2021/08/21 01:22:34;;;;;;;5.85;3.60;;;;;;;17.37;73.35;100320.02;1718092;82;21035;-40
2021/08/21 01:25:22;;;;;;;4.53;3.40;;;;;;;17.33;73.39;100321.10;1734576;82;20892;-40
2021/08/21 01:27:49;;;;;;;5.22;3.12;;;;;;;17.30;73.50;100318.61;1727156;82;21790;-40
2021/08/21 01:30:34;;;;;;;5.92;3.25;;;;;;;17.28;73.70;100322.63;1726098;82;21015;-40
2021/08/21 01:33:02;;;;;;;4.78;3.87;;;;;;;17.24;73.95;100316.69;1710330;82;21480;-40
2021/08/21 01:35:30;;;;;;;4.70;3.30;;;;;;;17.21;74.11;100324.69;1675998;83;21035;-39
2021/08/21 01:37:56;;;;;;;5.37;3.12;;;;;;;17.19;74.48;100326.53;1729498;82;20971;-39
2021/08/21 01:40:41;;;;;;;8.20;3.52;;;;;;;17.15;74.62;100324.13;1719478;82;21874;-40
2021/08/21 01:43:09;;;;;;;4.50;3.47;;;;;;;17.09;75.11;100327.91;1738457;82;20986;-40
2021/08/21 01:45:41;;;;;;;3.77;3.42;;;;;;;17.04;75.28;100328.56;1737665;82;21493;-40
2021/08/21 01:48:08;;;;;;;5.08;3.52;;;;;;;17.02;75.63;100335.19;1717273;82;21544;-40
2021/08/21 01:50:35;;;;;;;8.70;3.65;;;;;;;17.01;75.54;100336.11;1726714;82;20987;-40
2021/08/21 01:53:02;;;;;;;7.50;3.62;;;;;;;17.00;75.82;100330.94;1740463;82;21981;-40
2021/08/21 01:55:31;;;;;;;8.35;3.37;;;;;;;16.97;75.90;100333.67;1737851;81;21002;-39
2021/08/21 01:58:00;;;;;;;4.37;3.17;;;;;;;16.92;76.17;100337.35;1739446;82;20959;-40
2021/08/21 02:00:40;;;;;;;6.45;3.30;;;;;;;16.88;76.32;100342.34;1723722;82;21022;-40
2021/08/21 02:03:08;;;;;;;6.62;3.42;;;;;;;16.84;76.70;100339.48;1708749;82;20983;-40
2021/08/21 02:05:36;;;;;;;5.00;3.60;;;;;;;16.80;76.96;100340.55;1710989;82;21117;-39
2021/08/21 02:08:04;;;;;;;9.45;3.15;;;;;;;16.75;77.07;100345.12;1739267;82;21532;-39
2021/08/21 02:10:30;;;;;;;5.05;3.58;;;;;;;16.72;77.31;100347.44;1727027;82;20971;-39
2021/08/21 02:12:59;;;;;;;7.55;3.55;;;;;;;16.68;77.64;100343.27;1710451;82;21109;-40
2021/08/21 02:15:27;;;;;;;3.80;3.50;;;;;;;16.68;77.86;100347.63;1712748;82;21027;-40
2021/08/21 02:17:56;;;;;;;5.65;3.85;;;;;;;16.64;78.07;100349.08;1711599;83;21097;-39
2021/08/21 02:20:41;;;;;;;4.10;3.62;;;;;;;16.59;78.17;100351.50;1725440;82;20963;-40
2021/08/21 02:23:09;;;;;;;7.33;3.58;;;;;;;16.56;78.65;100347.29;1727731;82;21086;-41
2021/08/21 02:25:38;;;;;;;5.12;3.40;;;;;;;16.54;79.15;100354.31;1676325;82;21039;-39
2021/08/21 02:28:18;;;;;;;7.20;3.40;;;;;;;16.55;79.64;100359.10;1737876;82;20995;-40
2021/08/21 02:30:40;;;;;;;8.63;3.95;;;;;;;16.50;79.68;100357.98;1724741;81;21104;-40
2021/08/21 02:33:07;;;;;;;8.05;3.83;;;;;;;16.44;79.77;100362.19;1729021;81;21018;-40
2021/08/21 02:35:34;;;;;;;5.08;4.00;;;;;;;16.41;79.73;100359.24;1713301;81;20955;-40
2021/08/21 02:38:01;;;;;;;4.72;3.33;;;;;;;16.42;80.26;100360.11;1719784;81;21007;-39
2021/08/21 02:40:30;;;;;;;3.95;3.47;;;;;;;16.42;80.28;100364.89;1665766;83;21114;-40
2021/08/21 02:42:56;;;;;;;7.25;4.15;;;;;;;16.41;80.66;100361.86;1732869;82;21125;-40
2021/08/21 02:45:23;;;;;;;4.33;3.80;;;;;;;16.39;80.77;100365.00;1726528;82;20979;-40
2021/08/21 02:47:50;;;;;;;6.17;3.77;;;;;;;16.35;80.60;100364.30;1739984;82;20971;-40
2021/08/21 02:50:18;;;;;;;6.17;3.77;;;;;;;16.35;80.82;100366.05;1721042;81;20987;-41
2021/08/21 02:52:45;;;;;;;4.47;3.30;;;;;;;16.33;80.98;100361.36;1712465;83;20921;-40
2021/08/21 02:55:12;;;;;;;5.00;4.40;;;;;;;16.31;81.22;100366.66;1711745;81;21208;-40
2021/08/21 02:57:41;;;;;;;9.18;3.77;;;;;;;16.29;81.56;100365.86;1740753;82;20952;-40
2021/08/21 03:00:09;;;;;;;5.75;3.60;;;;;;;16.27;81.61;100366.38;1697103;83;21018;-40
2021/08/21 03:02:40;;;;;;;4.40;4.00;;;;;;;16.25;81.33;100365.61;1708320;83;21125;-40
2021/08/21 03:05:08;;;;;;;5.00;4.22;;;;;;;16.25;81.59;100365.61;1737629;82;21665;-40
2021/08/21 03:07:35;;;;;;;5.85;4.40;;;;;;;16.24;81.72;100369.13;1733835;82;21153;-40
2021/08/21 03:10:05;;;;;;;5.95;3.95;;;;;;;16.22;81.85;100364.00;1710991;82;21011;-40
2021/08/21 03:12:34;;;;;;;4.83;3.98;;;;;;;16.22;81.75;100371.83;1702935;83;21075;-40
2021/08/21 03:15:03;;;;;;;5.50;4.45;;;;;;;16.21;81.75;100366.66;1733014;82;20987;-40
2021/08/21 03:17:31;;;;;;;3.92;3.50;;;;;;;16.21;81.81;100369.27;1716805;82;20956;-40
2021/08/21 03:19:58;;;;;;;4.22;3.30;;;;;;;16.21;81.90;100369.27;1740796;82;22298;-40
2021/08/21 03:22:26;;;;;;;8.13;3.85;;;;;;;16.23;82.07;100371.35;1741892;81;21584;-41
2021/08/21 03:24:53;;;;;;;6.03;3.65;;;;;;;16.23;82.36;100367.44;1719247;82;21086;-40
2021/08/21 03:27:20;;;;;;;6.90;3.70;;;;;;;16.27;82.61;100368.16;1711658;83;21036;-40
2021/08/21 03:29:47;;;;;;;4.80;3.80;;;;;;;16.31;82.68;100367.97;1710704;83;21541;-40
2021/08/21 03:32:17;;;;;;;6.67;3.50;;;;;;;16.36;82.80;100366.00;1713268;83;21108;-40
2021/08/21 03:34:47;;;;;;;4.87;3.80;;;;;;;16.39;82.71;100365.00;1708245;82;21038;-40
2021/08/21 03:37:14;;;;;;;5.03;3.80;;;;;;;16.42;82.57;100364.89;1720499;82;21079;-40
2021/08/21 03:39:44;;;;;;;7.58;3.90;;;;;;;16.48;82.47;100365.05;1743015;81;20924;-39
2021/08/21 03:42:12;;;;;;;6.87;3.80;;;;;;;16.51;82.39;100365.77;1739884;82;21074;-39
2021/08/21 03:44:39;;;;;;;4.47;3.45;;;;;;;16.57;81.98;100364.66;1717914;82;21127;-40
2021/08/21 03:47:06;;;;;;;4.60;4.00;;;;;;;16.59;81.74;100368.49;1706805;83;20900;-39
2021/08/21 03:49:33;;;;;;;5.60;3.90;;;;;;;16.62;81.74;100369.21;1709546;83;20947;-40
2021/08/21 03:52:00;;;;;;;5.80;3.70;;;;;;;16.64;81.50;100372.60;1708523;83;21003;-40
2021/08/21 03:54:28;;;;;;;4.70;3.83;;;;;;;16.68;81.46;100375.07;1723099;82;20960;-40
2021/08/21 03:56:56;;;;;;;4.97;3.80;;;;;;;16.70;81.78;100378.02;1735042;82;21153;-39
2021/08/21 03:59:24;;;;;;;8.20;3.72;;;;;;;16.72;81.53;100376.63;1710444;83;21560;-39
2021/08/21 04:01:51;;;;;;;4.85;4.30;;;;;;;16.73;81.84;100386.16;1715044;82;21664;-39
2021/08/21 04:04:22;;;;;;;6.60;3.45;;;;;;;16.75;82.02;100386.94;1728324;82;20947;-40
2021/08/21 04:06:48;;;;;;;4.37;3.98;;;;;;;16.77;82.03;100382.48;1712004;83;20983;-40
2021/08/21 04:09:17;;;;;;;12.25;4.70;;;;;;;16.82;81.83;100392.30;1733399;81;21717;-40
2021/08/21 04:11:45;;;;;;;6.72;4.25;;;;;;;16.88;81.49;100390.70;1741894;82;21079;-40
2021/08/21 04:14:17;;;;;;;4.62;3.70;;;;;;;16.97;81.41;100388.56;1738350;81;21067;-40
2021/08/21 04:16:45;;;;;;;3.77;3.47;;;;;;;17.11;81.14;100392.74;1742573;81;21074;-40
2021/08/21 04:19:12;;;;;;;7.62;3.17;;;;;;;17.27;80.58;100394.61;1739157;81;20986;-40
2021/08/21 04:21:41;;;;;;;5.12;3.67;;;;;;;17.43;80.36;100406.50;1714366;82;21163;-39
2021/08/21 04:24:19;;;;;;;5.05;3.58;;;;;;;17.60;79.75;100399.17;1710779;82;21007;-40
2021/08/21 04:26:47;;;;;;;8.60;3.42;;;;;;;17.72;78.75;100398.55;1740979;82;21063;-40
2021/08/21 04:29:13;;;;;;;6.75;3.60;;;;;;;17.79;78.35;100400.41;1739339;82;21054;-40
2021/08/21 04:31:41;;;;;;;5.40;3.98;;;;;;;17.85;77.96;100394.03;1738394;82;20999;-40
2021/08/21 04:34:08;;;;;;;5.95;3.67;;;;;;;17.93;77.61;100396.62;1739253;82;21129;-40
2021/08/21 04:36:34;;;;;;;3.55;3.25;;;;;;;18.03;77.88;100398.83;1739356;82;20975;-39
2021/08/21 04:39:01;;;;;;;6.15;3.75;;;;;;;18.09;77.17;100403.75;1718759;82;20971;-40
2021/08/21 04:41:29;;;;;;;7.37;3.80;;;;;;;18.18;77.12;100411.60;1727399;82;20964;-39
2021/08/21 04:43:57;;;;;;;6.62;4.42;;;;;;;18.24;76.34;100408.66;1709786;83;21480;-41
2021/08/21 04:46:23;;;;;;;4.90;4.33;;;;;;;18.30;76.48;100407.50;1710283;83;21942;-40
2021/08/21 04:48:50;;;;;;;7.22;3.20;;;;;;;18.33;75.98;100402.97;1682804;83;21714;-40
2021/08/21 04:51:17;;;;;;;5.58;4.00;;;;;;;18.37;76.18;100404.95;1712361;82;21085;-40
2021/08/21 04:53:43;;;;;;;5.75;4.10;;;;;;;18.29;75.62;100406.64;1710201;83;21580;-40
2021/08/21 04:56:10;;;;;;;6.65;4.12;;;;;;;18.26;76.35;100409.42;1711085;83;21048;-40
2021/08/21 04:58:44;;;;;;;4.20;3.75;;;;;;;18.33;75.77;100404.72;1660862;83;22222;-40
2021/08/21 05:01:10;;;;;;;4.30;3.90;;;;;;;18.46;76.19;100401.00;1727799;82;21473;-40
2021/08/21 05:03:40;;;;;;;10.03;4.03;;;;;;;18.65;75.52;100406.97;1712893;82;20932;-40
2021/08/21 05:06:08;;;;;;;9.85;3.65;;;;;;;18.80;75.18;100413.62;1739274;82;20927;-40
2021/08/21 05:08:35;;;;;;;5.47;4.20;;;;;;;18.96;74.48;100405.80;1735384;82;21022;-40
2021/08/21 05:11:04;;;;;;;3.98;3.67;;;;;;;19.09;73.96;100402.89;1740642;82;20916;-40
2021/08/21 05:13:31;;;;;;;7.22;3.60;;;;;;;19.30;74.13;100405.72;1720644;82;20987;-40
2021/08/21 05:15:58;;;;;;;5.00;4.25;;;;;;;19.51;73.34;100401.88;1700511;82;21010;-40
2021/08/21 05:18:57;;;;;;;6.25;3.80;;;;;;;19.69;71.98;100403.08;1687238;82;21047;-39
2021/08/21 05:21:27;;;;;;;5.70;3.72;;;;;;;19.80;70.72;100414.28;1731368;82;21006;-39
2021/08/21 05:23:54;;;;;;;5.87;4.05;;;;;;;19.84;71.31;100409.22;1719785;82;21114;-40
2021/08/21 05:26:23;;;;;;;10.60;3.92;;;;;;;19.92;70.12;100414.89;1709114;83;21006;-40
2021/08/21 05:28:49;;;;;;;6.62;4.10;;;;;;;19.92;69.17;100412.27;1710400;83;20940;-41
2021/08/21 05:31:17;;;;;;;7.80;4.37;;;;;;;19.95;69.22;100415.20;1711826;83;20971;-40
2021/08/21 05:33:44;;;;;;;7.12;3.70;;;;;;;19.98;69.88;100412.88;1729708;82;20983;-40
2021/08/21 05:36:12;;;;;;;5.45;4.00;;;;;;;20.02;69.08;100414.38;1741033;81;21011;-40
2021/08/21 05:38:39;;;;;;;6.55;3.87;;;;;;;20.04;69.43;100411.19;1739660;81;21050;-40
2021/08/21 05:41:05;;;;;;;5.58;4.00;;;;;;;20.06;69.53;100411.45;1739618;82;21493;-41
2021/08/21 05:43:31;;;;;;;6.65;3.55;;;;;;;20.14;69.35;100412.80;1695532;83;21040;-40
2021/08/21 05:45:58;;;;;;;5.95;3.83;;;;;;;20.17;69.43;100415.25;1699054;83;21159;-40
2021/08/21 05:48:26;;;;;;;4.15;3.52;;;;;;;20.22;68.39;100414.50;1681890;83;21005;-40
2021/08/21 05:50:52;;;;;;;9.15;3.55;;;;;;;20.22;68.08;100415.81;1694662;82;21510;-40
2021/08/21 05:53:19;;;;;;;4.10;3.65;;;;;;;20.23;67.69;100417.50;1700101;81;21478;-40
2021/08/21 05:55:45;;;;;;;5.87;4.03;;;;;;;20.25;68.43;100414.31;1718198;82;21145;-40
2021/08/21 05:58:15;;;;;;;5.70;3.25;;;;;;;20.34;69.07;100422.11;1708917;83;20979;-40
2021/08/21 06:00:44;;;;;;;6.03;3.85;;;;;;;20.42;67.52;100418.55;1709079;83;21154;-40
2021/08/21 06:03:10;;;;;;;4.80;3.02;;;;;;;20.46;67.23;100413.50;1711993;82;22261;-40
2021/08/21 06:05:41;;;;;;;5.22;3.30;;;;;;;20.55;67.07;100423.91;1716352;80;21557;-41
2021/08/21 06:08:07;;;;;;;8.55;3.70;;;;;;;20.63;66.41;100425.61;1737131;82;21526;-40
2021/08/21 06:10:38;;;;;;;5.08;3.55;;;;;;;20.71;67.72;100421.66;1727490;82;21067;-40
2021/08/21 06:13:05;;;;;;;4.20;3.27;;;;;;;20.82;65.75;100429.75;1692782;83;21144;-40
2021/08/21 06:15:33;;;;;;;5.05;3.40;;;;;;;20.90;65.86;100429.27;1704663;82;21040;-40
2021/08/21 06:18:00;;;;;;;6.30;3.40;;;;;;;20.98;66.95;100427.48;1702735;83;21015;-41
2021/08/21 06:20:27;;;;;;;6.42;3.60;;;;;;;21.07;65.53;100427.75;1711111;82;21031;-40
2021/08/21 06:22:53;;;;;;;4.10;3.52;;;;;;;21.23;66.21;100432.89;1718736;81;21450;-40
2021/08/21 06:25:20;;;;;;;5.05;3.47;;;;;;;21.35;64.69;100431.74;1741636;81;21899;-40
2021/08/21 06:27:46;;;;;;;3.52;3.08;;;;;;;21.43;65.77;100429.45;1740781;80;21135;-40
2021/08/21 06:30:13;;;;;;;6.53;3.50;;;;;;;21.53;63.65;100434.48;1740680;81;21014;-40
2021/08/21 06:32:41;;;;;;;4.78;3.20;;;;;;;21.58;64.18;100437.28;1746301;81;20990;-41
2021/08/21 06:35:10;;;;;;;5.53;3.52;;;;;;;21.62;62.63;100428.27;1744938;81;21007;-41
2021/08/21 06:37:36;;;;;;;5.22;2.87;;;;;;;21.62;63.69;100433.53;1744199;81;22269;-41
2021/08/21 06:40:05;;;;;;;8.53;3.58;;;;;;;21.65;63.15;100433.36;1735867;82;21576;-40
2021/08/21 06:42:31;;;;;;;3.77;3.12;;;;;;;21.68;63.36;100428.71;1732378;81;21301;-41
2021/08/21 06:45:18;;;;;;;4.45;3.02;;;;;;;21.80;60.88;100437.59;1738908;81;21051;-41
2021/08/21 06:47:44;;;;;;;15.90;3.77;;;;;;;21.86;61.59;100429.77;1740535;81;21044;-41
2021/08/21 06:50:11;;;;;;;3.40;2.80;;;;;;;21.99;63.72;100434.23;1738455;82;21095;-40
2021/08/21 06:52:38;;;;;;;4.75;2.90;;;;;;;22.10;61.58;100427.29;1723046;82;20924;-41
2021/08/21 06:55:06;;;;;;;4.42;2.90;;;;;;;22.19;61.36;100426.28;1717737;82;20919;-40
2021/08/21 06:57:32;;;;;;;5.42;2.52;;;;;;;22.25;61.06;100428.50;1739448;82;21000;-40
2021/08/21 06:59:59;;;;;;;8.58;3.00;;;;;;;22.30;60.97;100430.34;1736759;82;20971;-40
2021/08/21 07:02:26;;;;;;;2.77;2.60;;;;;;;22.37;61.10;100426.81;1736634;82;22295;-40
2021/08/21 07:04:53;;;;;;;4.12;2.90;;;;;;;22.47;60.43;100434.97;1745237;80;20921;-40
2021/08/21 07:07:19;;;;;;;4.97;2.90;;;;;;;22.56;60.78;100435.64;1728198;80;21593;-40
2021/08/21 07:09:47;;;;;;;12.13;3.17;;;;;;;22.64;60.90;100425.42;1688241;83;21337;-40
2021/08/21 07:12:13;;;;;;;15.50;3.85;;;;;;;22.76;58.33;100432.09;1713122;82;21581;-41
2021/08/21 07:14:40;;;;;;;4.03;2.90;;;;;;;22.79;59.29;100434.51;1701834;83;21915;-41
2021/08/21 07:17:08;;;;;;;3.25;2.92;;;;;;;22.80;58.03;100427.81;1704005;83;21560;-41
2021/08/21 07:19:35;;;;;;;3.35;2.90;;;;;;;22.87;58.88;100434.83;1665255;85;20994;-41
2021/08/21 07:22:01;;;;;;;5.80;3.27;;;;;;;22.96;57.73;100435.48;1679660;84;21025;-41
2021/08/21 07:24:28;;;;;;;3.30;3.00;;;;;;;23.01;58.76;100429.89;1704742;82;21552;-41
2021/08/21 07:26:54;;;;;;;3.62;2.50;;;;;;;23.15;58.19;100424.94;1709869;82;22448;-41
2021/08/21 07:29:21;;;;;;;4.53;2.67;;;;;;;23.32;58.97;100436.08;1719098;82;21594;-41
2021/08/21 07:31:47;;;;;;;6.95;2.67;;;;;;;23.49;58.17;100433.06;1722837;82;21561;-41
2021/08/21 07:34:14;;;;;;;3.40;2.60;;;;;;;23.65;57.18;100432.77;1740035;82;20984;-42
2021/08/21 07:36:40;;;;;;;2.67;2.40;;;;;;;23.84;57.02;100434.05;1725441;82;21150;-42
2021/08/21 07:39:06;;;;;;;3.35;2.60;;;;;;;24.00;56.79;100428.44;1686123;82;21100;-41
2021/08/21 07:41:35;;;;;;;8.40;2.70;;;;;;;24.17;56.22;100430.31;1685845;83;21070;-42
2021/08/21 07:44:02;;;;;;;3.75;2.17;;;;;;;24.32;54.58;100433.09;1679513;84;20987;-42
2021/08/21 07:46:30;;;;;;;3.65;2.70;;;;;;;24.33;54.00;100429.48;1722443;81;21050;-41
2021/08/21 07:48:57;;;;;;;5.90;2.55;;;;;;;24.34;54.62;100430.34;1727085;82;20947;-42
2021/08/21 07:51:23;;;;;;;2.67;2.52;;;;;;;24.46;52.89;100430.69;1726103;82;22045;-41
2021/08/21 07:53:50;;;;;;;6.12;2.80;;;;;;;24.52;52.05;100430.24;1737398;82;20992;-41
2021/08/21 07:56:16;;;;;;;2.35;2.20;;;;;;;24.51;51.86;100431.67;1737512;82;21023;-42
2021/08/21 07:58:43;;;;;;;6.20;2.70;;;;;;;24.53;53.07;100432.39;1738652;82;21059;-40
2021/08/21 08:01:09;;;;;;;2.40;2.30;;;;;;;24.67;53.49;100430.84;1738906;82;21045;-40
2021/08/21 08:03:35;;;;;;;2.70;2.30;;;;;;;24.77;51.27;100434.11;1697251;82;21058;-40
2021/08/21 08:06:03;;;;;;;3.00;2.40;;;;;;;24.66;50.89;100436.23;1709678;82;21026;-41
2021/08/21 08:08:29;;;;;;;8.10;2.72;;;;;;;24.68;52.32;100421.94;1712194;83;21524;-40
2021/08/21 08:10:56;;;;;;;5.17;2.40;;;;;;;24.88;51.94;100428.78;1712015;82;21082;-40
2021/08/21 08:13:22;;;;;;;3.22;2.50;;;;;;;25.12;51.66;100437.05;1710540;83;20979;-41
2021/08/21 08:15:50;;;;;;;2.30;2.17;;;;;;;25.37;49.81;100429.77;1709524;83;21034;-40
2021/08/21 08:18:16;;;;;;;3.17;2.22;;;;;;;25.47;50.24;100441.34;1710848;83;20971;-41
2021/08/21 08:20:42;;;;;;;5.92;2.47;;;;;;;25.64;50.53;100437.30;1709161;83;20939;-40
2021/08/21 08:23:11;;;;;;;3.80;2.52;;;;;;;25.74;50.06;100430.75;1710797;82;21006;-40
2021/08/21 08:25:38;;;;;;;2.33;2.22;;;;;;;25.92;48.48;100434.99;1709773;83;20982;-41
2021/08/21 08:28:05;;;;;;;2.80;2.27;;;;;;;26.03;48.92;100439.39;1711722;82;21133;-41
2021/08/21 08:30:32;;;;;;;2.65;2.00;;;;;;;26.09;47.51;100438.86;1712902;82;20920;-41
2021/08/21 08:32:58;;;;;;;8.60;2.40;;;;;;;26.04;48.98;100438.42;1737635;82;21014;-40
2021/08/21 08:35:26;;;;;;;2.60;2.37;;;;;;;26.18;47.34;100439.93;1719208;82;20983;-41
2021/08/21 08:37:52;;;;;;;3.83;2.10;;;;;;;25.96;46.95;100441.71;1707983;83;21603;-41
2021/08/21 08:40:19;;;;;;;4.35;2.60;;;;;;;25.87;47.46;100441.64;1708979;83;22261;-41
2021/08/21 08:42:45;;;;;;;3.55;2.27;;;;;;;25.89;49.89;100449.83;1717346;82;20944;-41
2021/08/21 08:45:13;;;;;;;10.88;2.80;;;;;;;26.03;48.22;100443.37;1715613;82;21113;-41
2021/08/21 08:47:41;;;;;;;10.55;2.12;;;;;;;26.03;46.92;100444.70;1739283;81;21122;-41
2021/08/21 08:50:11;;;;;;;2.10;1.87;;;;;;;26.04;48.61;100446.38;1735773;81;21093;-41
2021/08/21 08:52:39;;;;;;;4.75;2.33;;;;;;;26.23;48.76;100449.66;1706944;82;21014;-41
2021/08/21 08:55:08;;;;;;;2.30;1.92;;;;;;;26.34;44.81;100451.39;1724665;82;21525;-41
2021/08/21 08:57:40;;;;;;;4.35;2.10;;;;;;;26.15;47.29;100456.08;1721451;80;21058;-41
2021/08/21 09:00:20;;;;;;;3.37;2.17;;;;;;;26.17;46.86;100444.06;1722644;81;21034;-41
2021/08/21 09:02:55;;;;;;;2.22;2.12;;;;;;;26.28;46.73;100451.92;1736320;81;20933;-41
2021/08/21 09:05:23;;;;;;;;;;;;;;;26.46;46.33;100453.98;1738259;82;21396;-42
2021/08/21 09:07:56;;;;;;;4.10;2.42;;;;;;;26.71;45.72;100451.86;1712116;82;20103;-41
2021/08/21 09:10:29;;;;;;;3.75;2.27;;;;;;;26.92;46.34;100446.03;1710467;83;20978;-41
2021/08/21 09:13:12;;;;;;;5.25;2.27;;;;;;;27.01;45.99;100444.85;1738492;81;21045;-42
2021/08/21 09:15:42;;;;;;;2.37;2.22;;;;;;;27.03;44.80;100446.87;1738869;82;21062;-41
2021/08/21 09:18:16;;;;;;;3.40;2.30;;;;;;;26.88;46.02;100457.05;1711149;82;22480;-41
2021/08/21 09:21:01;;;;;;;4.35;2.40;;;;;;;26.87;44.52;100445.57;1721788;82;21018;-42
2021/08/21 09:23:36;;;;;;;10.70;2.35;;;;;;;26.90;44.80;100447.95;1740990;81;20971;-41
2021/08/21 09:26:27;;;;;;;3.58;2.50;;;;;;;26.83;46.33;100461.39;1741194;81;20928;-42
2021/08/21 09:28:54;;;;;;;6.50;2.40;;;;;;;26.75;46.00;100452.77;1709808;81;20983;-42
2021/08/21 09:31:22;;;;;;;2.33;2.20;;;;;;;26.86;46.38;100456.34;1739432;82;21108;-41
2021/08/21 09:34:00;;;;;;;3.58;2.50;;;;;;;26.99;46.73;100446.81;1740009;81;20979;-41
2021/08/21 09:36:31;;;;;;;2.45;2.25;;;;;;;27.04;45.68;100449.89;1732681;81;21643;-40
2021/08/21 09:39:00;;;;;;;3.83;2.20;;;;;;;26.90;46.52;100462.55;1721181;82;21019;-41
2021/08/21 09:41:27;;;;;;;5.67;2.42;;;;;;;26.98;47.16;100461.06;1734239;80;21609;-41
2021/08/21 09:44:07;;;;;;;7.35;2.20;;;;;;;27.16;44.40;100452.80;1709897;82;21142;-42
2021/08/21 09:46:34;;;;;;;2.90;2.42;;;;;;;27.24;45.40;100451.61;1695721;83;21022;-42
2021/08/21 09:49:10;;;;;;;2.55;2.35;;;;;;;27.54;45.69;100457.82;1736525;81;22301;-42
2021/08/21 09:51:46;;;;;;;2.83;2.30;;;;;;;27.87;46.38;100459.34;1716764;82;21030;-41
2021/08/21 09:54:17;;;;;;;2.83;2.55;;;;;;;27.97;43.75;100451.70;1736620;82;21193;-42
2021/08/21 09:56:55;;;;;;;4.22;2.00;;;;;;;27.68;43.90;100452.58;1738315;82;21197;-41
2021/08/21 09:59:43;;;;;;;2.52;2.27;;;;;;;27.43;44.06;100466.38;1719071;82;21519;-41
2021/08/21 10:02:13;;;;;;;2.70;1.98;;;;;;;27.14;43.73;100462.69;1711121;83;20927;-41
2021/08/21 10:04:42;;;;;;;19.05;2.50;;;;;;;26.82;45.49;100461.89;1722288;81;21062;-41
2021/08/21 10:07:14;;;;;;;4.10;2.27;;;;;;;26.84;43.97;100468.38;1709995;82;20967;-41
2021/08/21 10:09:40;;;;;;;6.83;2.37;;;;;;;26.82;44.56;100470.33;1713130;82;21545;-41
2021/08/21 10:12:14;;;;;;;4.10;2.17;;;;;;;26.83;44.50;100475.98;1728818;82;21548;-41
2021/08/21 10:14:43;;;;;;;2.60;2.40;;;;;;;26.93;44.46;100475.59;1736311;82;21522;-41
2021/08/21 10:17:10;;;;;;;4.22;2.37;;;;;;;27.02;46.03;100486.36;1715122;82;21008;-42
2021/08/21 10:22:09;;;;;;;2.90;2.12;;;;;;;27.24;44.59;100483.48;1787546;79;22298;-42
2021/08/21 10:24:41;;;;;;;4.70;2.33;;;;;;;27.25;44.13;100482.98;1768650;80;20983;-41
2021/08/21 10:27:33;;;;;;;11.08;2.17;;;;;;;27.40;44.14;100475.45;1718997;81;21153;-42
2021/08/21 10:30:15;;;;;;;4.97;2.08;;;;;;;27.47;42.74;100479.27;1722843;83;21467;-41
2021/08/21 10:33:00;;;;;;;3.55;2.22;;;;;;;27.32;43.21;100480.16;1690875;83;21042;-41
2021/08/21 10:35:51;;;;;;;7.60;2.20;;;;;;;27.18;43.08;100476.08;1726658;81;21634;-41
2021/08/21 10:38:38;;;;;;;4.85;2.08;;;;;;;27.11;42.84;100478.42;1677623;83;21524;-42
2021/08/21 10:41:16;;;;;;;4.05;2.37;;;;;;;27.09;43.09;100472.89;1737737;81;21955;-42
2021/08/21 10:43:51;;;;;;;2.60;2.12;;;;;;;27.21;44.92;100473.14;1736889;81;20999;-42
2021/08/21 10:46:35;;;;;;;2.52;2.33;;;;;;;27.43;44.41;100479.19;1726206;81;20976;-41
2021/08/21 10:49:06;;;;;;;3.90;1.95;;;;;;;27.76;44.43;100476.28;1723950;81;21034;-41
2021/08/21 10:51:40;;;;;;;5.28;2.27;;;;;;;28.07;43.05;100485.45;1723508;81;20989;-41
2021/08/21 10:54:31;;;;;;;4.28;2.00;;;;;;;28.19;41.17;100478.18;1723801;83;21113;-41
2021/08/21 10:56:59;;;;;;;2.30;2.10;;;;;;;28.10;43.01;100483.83;1716945;83;21474;-41
2021/08/21 10:59:45;;;;;;;3.67;2.17;;;;;;;28.00;42.88;100492.30;1686572;83;21069;-42
2021/08/21 11:02:32;;;;;;;2.90;2.05;;;;;;;27.76;43.19;100496.22;1707968;84;20967;-42
2021/08/21 11:04:56;;;;;;;4.53;2.35;;;;;;;27.80;42.90;100488.34;1694651;82;21055;-42
2021/08/21 11:07:39;;;;;;;2.52;2.02;;;;;;;27.86;44.15;100484.26;1679676;85;21847;-42
2021/08/21 11:10:18;;;;;;;4.87;1.80;;;;;;;27.82;42.28;100487.20;1679785;85;21058;-41
2021/08/21 11:12:52;;;;;;;4.87;2.00;;;;;;;27.66;42.85;100500.20;1693268;84;21501;-42
2021/08/21 11:15:16;;;;;;;3.85;2.55;;;;;;;27.56;43.75;100498.03;1671686;84;20943;-42
2021/08/21 11:17:42;;;;;;;2.35;2.00;;;;;;;27.62;42.30;100483.70;1697087;84;21026;-41
2021/08/21 11:20:32;;;;;;;4.95;2.00;;;;;;;27.69;42.55;100487.98;1675318;84;21128;-41
2021/08/21 11:23:16;;;;;;;2.85;2.00;;;;;;;27.77;43.25;100496.09;1708734;83;20951;-42
2021/08/21 11:25:44;;;;;;;5.35;2.10;;;;;;;28.07;43.28;100496.91;1693312;83;20991;-42
2021/08/21 11:28:20;;;;;;;2.72;1.92;;;;;;;28.15;43.17;100498.02;1692145;83;21053;-42
2021/08/21 11:30:42;;;;;;;2.55;2.00;;;;;;;27.90;41.95;100501.61;1690830;83;21012;-42
2021/08/21 11:33:13;;;;;;;3.08;1.70;;;;;;;27.72;42.26;100503.66;1670653;83;21786;-43
2021/08/21 11:35:54;;;;;;;9.25;2.58;;;;;;;27.81;41.89;100499.32;1678835;84;20982;-42
2021/08/21 11:38:31;;;;;;;4.12;1.90;;;;;;;27.71;41.27;100504.64;1674781;84;21610;-41